Skip to content.

Wairarapa Tararua

  

Waione East - WAE

Logged in to unit HSN12141 as: Guest
(Last data received Sun 25 Feb 2018 09:01:04 - 9 minutes ago)

All FWI Graphs Forecast Hourly FWI Daily FWI Download FWI Data

Hourly FWI Logs | Period From 09:01 24/02/2018 to 09:01 25/02/2018

Change the DoC% for the 24hr period starting 12:00pm 24/2/2018 to

If the date above is the current day, then all future logs will inherit this value until such time as it is changed again. If you wish to change historic values you can do so by going back to the day you want to alter (navigate via the graphs) and change the DoC% there (however this will only affect that day).

WindRainHourly FWIsDaily FWIsForestGrassScrub
DateTime (NZST)Temp (C)RH (%)Dir (deg)Speed (km/h)Hourly (mm)Daily (mm)FFMCISIHFWIFFMCDMCDCISIBUIFWIDSRROS (m/h)FFI (kW/m)FFDCDoC (%)ROS (m/h)GFI (kW/m)GFDCROS (m/h)SFI (kW/m)SFDC
25/02/2018 0800 19.1 63.1 256 40.0 0.0 83.6 13.0 17.5 503 473 M 65 817 1430 H 3061 30611 E
25/02/2018 0700 18.1 63.4 252 45.7 0.0 83.3 20.2 24.0 722 678 H 65 1418 2481 V 3974 39742 E
25/02/2018 0600 17.5 68.5 260 27.0 0.0 83.1 6.3 9.9 219 206 M 65 289 506 H 1582 15817 E
25/02/2018 0500 17.6 67.8 260 32.0 0.0 82.9 8.1 12.1 297 279 M 65 414 725 H 2025 20254 E
25/02/2018 0400 17.6 71.3 255 31.3 0.0 82.8 7.6 11.6 278 261 M 65 382 668 H 1918 19177 E
25/02/2018 0300 17.9 72.8 255 40.3 0.0 82.7 18.7 22.8 684 643 H 65 1296 2268 V 3830 38304 E
25/02/2018 0200 17.8 73.2 260 32.0 0.0 82.7 7.8 11.8 286 268 M 65 395 691 H 1962 19617 E
25/02/2018 0100 18.0 74.2 261 19.1 0.0 82.7 4.0 6.7 118 111 M 65 144 252 M 944 9444 E
25/02/2018 0000 18.0 75.5 287 18.7 0.0 82.7 4.0 6.6 115 108 M 65 140 245 M 923 9227 E
24/02/2018 2300 18.1 76.0 275 18.7 0.0 82.7 4.0 6.6 115 108 M 65 140 245 M 923 9227 E
24/02/2018 2200 18.3 75.7 253 24.1 0.0 82.7 5.2 8.4 169 159 M 65 214 375 M 1273 12735 E
24/02/2018 2100 18.2 74.8 266 9.4 0.0 82.7 2.5 4.1 57 53 M 65 65 115 M 506 5056 E
24/02/2018 2000 18.5 73.6 259 21.2 0.0 82.7 4.5 7.4 138 130 M 65 171 299 M 1075 10753 E
24/02/2018 1900 19.4 69.5 249 11.5 0.0 82.6 2.8 4.6 67 63 M 65 78 136 M 580 5800 E
24/02/2018 1800 21.4 63.8 246 13.7 0.0 82.5 3.0 5.0 77 72 M 65 90 157 M 652 6521 E
24/02/2018 1700 23.3 57.5 260 20.5 0.0 82.1 4.0 6.7 118 111 M 65 144 252 M 945 9446 E
24/02/2018 1600 23.7 55.7 237 13.3 0.0 81.2 2.5 4.2 59 56 M 65 68 120 M 524 5244 E
24/02/2018 1500 24.1 58.7 253 12.2 0.0 80.3 2.2 3.5 46 43 M 65 53 92 M 422 4223 E
24/02/2018 1400 23.3 54.1 266 15.1 0.0 79.2 2.3 3.7 49 46 M 65 56 98 M 446 4464 E
24/02/2018 1300 22.8 57.6 257 16.2 0.0 77.9 2.1 3.4 44 42 M 65 50 88 M 407 4071 E
24/02/2018 1200 22.5 52.8 271 18.0 0.0 0.0 76.4 2.1 3.3 82.1 11.1 394.2 3.6 20.8 6.0 0.6 43 40 M 65 49 86 M 398 3981 V
24/02/2018 1100 21.6 56.8 264 20.5 0.0 74.5 2.1 2.9 39 23 M 65 50 88 M 406 4063 E
24/02/2018 1000 20.2 64.1 278 9.0 0.0 72.6 1.1 0.9 13 8 L 65 17 29 M 161 1606 H
24/02/2018 0900 19.8 70.7 326 4.0 0.0 71.2 0.8 0.6 8 5 L 65 10 17 M 104 1037 H